createdAt,value
2023-03-15T00:00:48.419Z,0.00
2023-03-15T00:01:49.235Z,0.00
2023-03-15T00:02:50.066Z,0.00
2023-03-15T00:03:50.590Z,0.00
2023-03-15T00:04:51.375Z,0.00
2023-03-15T00:05:52.222Z,0.00
2023-03-15T00:06:52.761Z,0.00
2023-03-15T00:07:53.561Z,0.00
2023-03-15T00:08:54.362Z,0.00
2023-03-15T00:09:54.925Z,0.00
2023-03-15T00:10:56.521Z,0.00
2023-03-15T00:11:56.854Z,0.00
2023-03-15T00:12:57.377Z,0.00
2023-03-15T00:13:58.198Z,0.00
2023-03-15T00:14:58.991Z,0.00
2023-03-15T00:15:59.611Z,0.00
2023-03-15T00:17:00.366Z,0.00
2023-03-15T00:18:01.179Z,0.00
2023-03-15T00:19:01.739Z,0.00
2023-03-15T00:20:02.523Z,0.00
2023-03-15T00:21:03.339Z,0.00
2023-03-15T00:22:03.897Z,0.00
2023-03-15T00:23:04.689Z,0.00
2023-03-15T00:24:05.499Z,0.00
2023-03-15T00:25:06.045Z,0.00
2023-03-15T00:26:06.869Z,0.00
2023-03-15T00:27:07.679Z,0.00
2023-03-15T00:28:08.234Z,0.00
2023-03-15T00:29:09.049Z,0.00
2023-03-15T00:30:09.831Z,0.00
2023-03-15T00:31:10.426Z,0.00
2023-03-15T00:32:11.194Z,0.00
2023-03-15T00:33:11.999Z,0.00
2023-03-15T00:34:12.548Z,0.00
2023-03-15T00:35:13.353Z,0.00
2023-03-15T00:36:14.284Z,0.00
2023-03-15T00:37:14.772Z,0.00
2023-03-15T00:38:15.601Z,0.00
2023-03-15T00:39:16.393Z,0.00
2023-03-15T00:40:16.966Z,0.00
2023-03-15T00:41:17.789Z,0.00
2023-03-15T00:42:18.593Z,0.00
2023-03-15T00:43:19.150Z,0.00
2023-03-15T00:44:19.955Z,0.00
2023-03-15T00:45:20.767Z,0.00
2023-03-15T00:46:21.391Z,0.00
2023-03-15T00:47:22.163Z,0.00
2023-03-15T00:48:22.982Z,0.00
2023-03-15T00:49:23.522Z,0.00
2023-03-15T00:50:24.332Z,0.00
2023-03-15T00:51:25.154Z,0.00
2023-03-15T00:52:25.709Z,0.00
2023-03-15T00:53:26.503Z,0.00
2023-03-15T00:54:27.318Z,0.00
2023-03-15T00:55:27.869Z,0.00
2023-03-15T00:56:28.813Z,0.00
2023-03-15T00:57:29.613Z,0.00
2023-03-15T00:58:30.152Z,0.00
2023-03-15T00:59:30.954Z,0.00
2023-03-15T01:00:31.757Z,0.00
2023-03-15T01:01:32.333Z,0.00
2023-03-15T01:02:33.173Z,0.00
2023-03-15T01:03:36.744Z,0.00
2023-03-15T01:04:34.481Z,0.00
2023-03-15T01:05:35.287Z,0.00
2023-03-15T01:06:35.850Z,0.00
2023-03-15T01:07:36.656Z,0.00
2023-03-15T01:08:37.472Z,0.00
2023-03-15T01:09:38.010Z,0.00
2023-03-15T01:10:38.810Z,0.00
2023-03-15T01:11:39.665Z,0.00
2023-03-15T01:12:40.179Z,0.00
2023-03-15T01:13:41.001Z,0.00
2023-03-15T01:14:41.791Z,0.00
2023-03-15T01:15:42.393Z,0.00
2023-03-15T01:16:43.170Z,0.00
2023-03-15T01:17:43.992Z,0.00
2023-03-15T01:18:44.532Z,0.00
2023-03-15T01:19:45.337Z,0.00
2023-03-15T01:20:46.151Z,0.00
2023-03-15T01:21:46.705Z,0.00
2023-03-15T01:22:47.519Z,0.00
2023-03-15T01:23:48.313Z,0.00
2023-03-15T01:24:48.901Z,0.00
2023-03-15T01:25:49.667Z,0.00
2023-03-15T01:26:50.496Z,0.00
2023-03-15T01:27:51.039Z,0.00
2023-03-15T01:28:51.851Z,0.00
2023-03-15T01:29:52.656Z,0.00
2023-03-15T01:30:53.208Z,0.00
2023-03-15T01:31:54.097Z,0.00
2023-03-15T01:32:54.943Z,0.00
2023-03-15T01:33:55.475Z,0.00
2023-03-15T01:34:56.282Z,0.00
2023-03-15T01:35:57.100Z,0.00
2023-03-15T01:36:57.649Z,0.00
2023-03-15T01:37:58.464Z,0.00
2023-03-15T01:38:59.264Z,0.00
2023-03-15T01:39:59.813Z,0.00
2023-03-15T01:41:00.649Z,0.00
2023-03-15T01:42:01.444Z,0.00
2023-03-15T01:43:01.990Z,0.00
2023-03-15T01:44:02.787Z,0.00
2023-03-15T01:45:03.592Z,0.00
2023-03-15T01:46:04.130Z,0.00
2023-03-15T01:47:05.017Z,0.00
2023-03-15T01:48:05.787Z,0.00
2023-03-15T01:49:06.365Z,0.00
2023-03-15T01:50:07.149Z,0.00
2023-03-15T01:51:07.960Z,0.00
2023-03-15T01:52:08.525Z,0.00
2023-03-15T01:53:09.332Z,0.00
2023-03-15T01:54:10.138Z,0.00
2023-03-15T01:55:10.674Z,0.00
2023-03-15T01:56:11.478Z,0.00
2023-03-15T01:57:12.298Z,0.00
2023-03-15T01:58:12.843Z,0.00
2023-03-15T01:59:13.659Z,0.00
2023-03-15T02:00:14.463Z,0.00
2023-03-15T02:01:15.052Z,0.00
2023-03-15T02:02:15.907Z,0.00
2023-03-15T02:03:16.694Z,0.00
2023-03-15T02:04:17.242Z,0.00
2023-03-15T02:05:18.043Z,0.00
2023-03-15T02:06:18.849Z,0.00
2023-03-15T02:07:19.408Z,0.00
2023-03-15T02:08:20.211Z,0.00
2023-03-15T02:09:21.021Z,0.00
2023-03-15T02:10:21.588Z,0.00
2023-03-15T02:11:22.399Z,0.00
2023-03-15T02:12:23.193Z,0.00
2023-03-15T02:13:23.766Z,0.00
2023-03-15T02:14:24.545Z,0.00
2023-03-15T02:15:25.374Z,0.00
2023-03-15T02:16:25.949Z,0.00
2023-03-15T02:17:26.726Z,0.00
2023-03-15T02:18:27.548Z,0.00
2023-03-15T02:19:28.095Z,0.00
2023-03-15T02:20:28.922Z,0.00
2023-03-15T02:21:29.724Z,0.00
2023-03-15T02:22:30.266Z,0.00
2023-03-15T02:23:31.076Z,0.00
2023-03-15T02:24:31.894Z,0.00
2023-03-15T02:25:32.450Z,0.00
2023-03-15T02:26:33.252Z,0.00
2023-03-15T02:27:34.111Z,0.00
2023-03-15T02:28:34.609Z,0.00
2023-03-15T02:29:35.422Z,0.00
2023-03-15T02:30:36.240Z,0.00
2023-03-15T02:31:36.819Z,0.00
2023-03-15T02:32:37.621Z,0.00
2023-03-15T02:33:38.405Z,0.00
2023-03-15T02:34:38.950Z,0.00
2023-03-15T02:35:39.790Z,0.00
2023-03-15T02:36:40.582Z,0.00
2023-03-15T02:37:41.126Z,0.00
2023-03-15T02:38:41.926Z,0.00
2023-03-15T02:39:43.574Z,0.00
2023-03-15T02:40:43.622Z,0.00
2023-03-15T02:41:44.446Z,0.00
2023-03-15T02:42:45.236Z,0.00
2023-03-15T02:43:45.779Z,0.00
2023-03-15T02:44:46.579Z,0.00
2023-03-15T02:45:47.419Z,0.00
2023-03-15T02:46:47.944Z,0.00
2023-03-15T02:47:48.757Z,0.00
2023-03-15T02:48:49.545Z,0.00
2023-03-15T02:49:50.096Z,0.00
2023-03-15T02:50:50.970Z,0.00
2023-03-15T02:51:51.763Z,0.00
2023-03-15T02:52:52.308Z,0.00
2023-03-15T02:53:53.114Z,0.00
2023-03-15T02:54:53.919Z,0.00
2023-03-15T02:55:54.489Z,0.00
2023-03-15T02:56:55.292Z,0.00
2023-03-15T02:57:56.096Z,0.00
2023-03-15T02:58:56.651Z,0.00
2023-03-15T02:59:57.485Z,0.00
2023-03-15T03:00:58.306Z,0.00
2023-03-15T03:01:58.821Z,0.00
2023-03-15T03:02:59.633Z,0.00
2023-03-15T03:04:00.456Z,0.00
2023-03-15T03:05:00.993Z,0.00
2023-03-15T03:06:01.869Z,0.00
2023-03-15T03:07:02.663Z,0.00
2023-03-15T03:08:03.217Z,0.00
2023-03-15T03:09:04.028Z,0.00
2023-03-15T03:10:04.843Z,0.00
2023-03-15T03:11:05.422Z,0.00
2023-03-15T03:12:06.219Z,0.00
2023-03-15T03:13:07.031Z,0.00
2023-03-15T03:14:07.568Z,0.00
2023-03-15T03:15:08.365Z,0.00
2023-03-15T03:16:09.200Z,0.00
2023-03-15T03:17:09.743Z,0.00
2023-03-15T03:18:10.557Z,0.00
2023-03-15T03:19:11.337Z,0.00
2023-03-15T03:20:11.894Z,0.00
2023-03-15T03:21:12.714Z,0.00
2023-03-15T03:22:13.530Z,0.00
2023-03-15T03:23:14.072Z,0.00
2023-03-15T03:24:14.881Z,0.00
2023-03-15T03:25:15.669Z,0.00
2023-03-15T03:26:16.240Z,0.00
2023-03-15T03:27:17.164Z,0.00
2023-03-15T03:28:17.952Z,0.00
2023-03-15T03:29:18.494Z,0.00
2023-03-15T03:30:19.292Z,0.00
2023-03-15T03:31:20.296Z,0.00
2023-03-15T03:32:20.890Z,0.00
2023-03-15T03:33:21.674Z,0.00
2023-03-15T03:34:22.487Z,0.00
2023-03-15T03:35:23.044Z,0.00
2023-03-15T03:36:23.862Z,0.00
2023-03-15T03:37:24.659Z,0.00
2023-03-15T03:38:25.203Z,0.00
2023-03-15T03:39:25.997Z,0.00
2023-03-15T03:40:26.809Z,0.00
2023-03-15T03:41:27.374Z,0.00
2023-03-15T03:42:28.170Z,0.00
2023-03-15T03:43:29.000Z,0.00
2023-03-15T03:44:29.538Z,0.00
2023-03-15T03:45:30.335Z,0.00
2023-03-15T03:46:31.219Z,0.00
2023-03-15T03:47:31.734Z,0.00
2023-03-15T03:48:32.562Z,0.00
2023-03-15T03:49:33.347Z,0.00
2023-03-15T03:50:33.907Z,0.00
2023-03-15T03:51:34.756Z,0.00
2023-03-15T03:52:35.560Z,0.00
2023-03-15T03:53:36.109Z,0.00
2023-03-15T03:54:36.911Z,0.00
2023-03-15T03:55:37.722Z,0.00
2023-03-15T03:56:38.283Z,0.00
2023-03-15T03:57:39.085Z,0.00
2023-03-15T03:58:39.910Z,0.00
2023-03-15T03:59:40.428Z,0.00
2023-03-15T04:00:41.241Z,0.00
2023-03-15T04:01:42.074Z,0.00
2023-03-15T04:02:42.696Z,0.00
2023-03-15T04:03:43.499Z,0.00
2023-03-15T04:04:44.348Z,0.00
2023-03-15T04:05:44.839Z,0.00
2023-03-15T04:06:45.933Z,0.00
2023-03-15T04:07:46.787Z,0.00
2023-03-15T04:08:47.337Z,0.00
2023-03-15T04:09:48.127Z,0.00
2023-03-15T04:10:48.932Z,0.00
2023-03-15T04:11:49.513Z,0.00
2023-03-15T04:12:50.311Z,0.00
2023-03-15T04:13:51.116Z,0.00
2023-03-15T04:14:51.670Z,0.00
2023-03-15T04:15:52.516Z,0.00
2023-03-15T04:16:53.295Z,0.00
2023-03-15T04:17:53.845Z,0.00
2023-03-15T04:18:54.645Z,0.00
2023-03-15T04:19:55.457Z,0.00
2023-03-15T04:20:56.001Z,0.00
2023-03-15T04:21:56.831Z,0.00
2023-03-15T04:22:57.636Z,0.00
2023-03-15T04:23:58.191Z,0.00
2023-03-15T04:24:58.989Z,0.00
2023-03-15T04:25:59.792Z,0.00
2023-03-15T04:27:00.356Z,0.00
2023-03-15T04:28:01.165Z,0.00
2023-03-15T04:29:01.956Z,0.00
2023-03-15T04:30:02.508Z,0.00
2023-03-15T04:31:03.344Z,0.00
2023-03-15T04:32:04.140Z,0.00
2023-03-15T04:33:04.668Z,0.00
2023-03-15T04:34:05.478Z,0.00
2023-03-15T04:35:06.270Z,0.00
2023-03-15T04:36:06.823Z,0.00
2023-03-15T04:37:07.635Z,0.00
2023-03-15T04:38:08.454Z,0.00
2023-03-15T04:39:08.977Z,0.00
2023-03-15T04:40:09.776Z,0.00
2023-03-15T04:41:10.587Z,0.00
2023-03-15T04:42:11.147Z,0.00
2023-03-15T04:43:12.002Z,0.00
2023-03-15T04:44:12.747Z,0.00
2023-03-15T04:45:13.289Z,0.00
2023-03-15T04:46:14.215Z,0.00
2023-03-15T04:47:15.020Z,0.00
2023-03-15T04:48:15.567Z,0.00
2023-03-15T04:49:16.380Z,0.00
2023-03-15T04:50:17.166Z,0.00
2023-03-15T04:51:17.707Z,0.00
2023-03-15T04:52:18.566Z,0.00
2023-03-15T04:53:19.365Z,0.00
2023-03-15T04:54:19.922Z,0.00
2023-03-15T04:55:20.722Z,0.00
2023-03-15T04:56:21.534Z,0.00
2023-03-15T04:57:22.085Z,0.00
2023-03-15T04:58:22.901Z,0.00
2023-03-15T04:59:23.698Z,0.00
2023-03-15T05:00:24.248Z,0.00
2023-03-15T05:01:25.053Z,0.00
2023-03-15T05:02:25.877Z,0.00
2023-03-15T05:03:26.369Z,0.00
2023-03-15T05:04:27.126Z,0.00
2023-03-15T05:05:27.872Z,0.00
2023-03-15T05:06:28.859Z,0.00
2023-03-15T05:07:29.684Z,0.00
2023-03-15T05:08:30.425Z,0.00
2023-03-15T05:09:30.909Z,0.00
2023-03-15T05:10:31.655Z,0.00
2023-03-15T05:11:32.419Z,0.00
2023-03-15T05:12:32.917Z,0.00
2023-03-15T05:13:33.731Z,0.00
2023-03-15T05:14:34.421Z,0.00
2023-03-15T05:15:35.399Z,0.00
2023-03-15T05:16:36.173Z,0.00
2023-03-15T05:17:36.917Z,0.00
2023-03-15T05:18:37.411Z,0.00
2023-03-15T05:19:38.152Z,0.00
2023-03-15T05:20:38.894Z,0.00
2023-03-15T05:21:39.384Z,0.00
2023-03-15T05:22:40.154Z,0.00
2023-03-15T05:23:40.907Z,0.00
2023-03-15T05:24:41.898Z,0.00
2023-03-15T05:25:42.664Z,0.00
2023-03-15T05:26:43.421Z,0.00
2023-03-15T05:27:43.925Z,0.00
2023-03-15T05:28:44.735Z,0.00
2023-03-15T05:29:45.446Z,0.00
2023-03-15T05:30:46.431Z,0.00
2023-03-15T05:31:47.194Z,5.62
2023-03-15T05:32:48.011Z,5.62
2023-03-15T05:33:48.469Z,5.62
2023-03-15T05:34:49.200Z,5.62
2023-03-15T05:35:50.449Z,5.62
2023-03-15T05:36:51.701Z,5.62
2023-03-15T05:37:52.189Z,5.62
2023-03-15T05:38:52.935Z,11.25
2023-03-15T05:39:54.173Z,11.25
2023-03-15T05:40:54.719Z,11.25
2023-03-15T05:41:55.437Z,11.25
2023-03-15T05:42:56.197Z,11.25
2023-03-15T05:43:56.685Z,11.25
2023-03-15T05:44:57.434Z,11.25
2023-03-15T05:45:58.222Z,11.25
2023-03-15T05:46:58.678Z,16.88
2023-03-15T05:47:59.435Z,16.88
2023-03-15T05:49:00.178Z,16.88
2023-03-15T05:50:00.662Z,16.88
2023-03-15T05:51:01.411Z,16.88
2023-03-15T05:52:02.161Z,22.50
2023-03-15T05:53:03.207Z,22.50
2023-03-15T05:54:03.953Z,22.50
2023-03-15T05:55:05.215Z,22.50
2023-03-15T05:56:05.694Z,22.50
2023-03-15T05:57:06.438Z,28.12
2023-03-15T05:58:07.214Z,28.12
2023-03-15T05:59:07.704Z,28.12
2023-03-15T06:00:08.454Z,28.12
2023-03-15T06:01:09.222Z,28.12
2023-03-15T06:02:09.708Z,28.12
2023-03-15T06:03:10.511Z,28.12
2023-03-15T06:04:11.277Z,28.12
2023-03-15T06:05:11.724Z,33.75
2023-03-15T06:06:12.477Z,33.75
2023-03-15T06:07:13.232Z,33.75
2023-03-15T06:08:13.739Z,33.75
2023-03-15T06:09:14.487Z,33.75
2023-03-15T06:10:15.721Z,33.75
2023-03-15T06:11:17.924Z,33.75
2023-03-15T06:12:17.901Z,33.75
2023-03-15T06:13:18.676Z,39.38
2023-03-15T06:14:19.513Z,39.38
2023-03-15T06:15:19.944Z,39.38
2023-03-15T06:16:20.843Z,45.00
2023-03-15T06:17:21.606Z,45.00
2023-03-15T06:18:22.597Z,45.00
2023-03-15T06:19:23.347Z,45.00
2023-03-15T06:20:24.099Z,45.00
2023-03-15T06:21:25.097Z,50.62
2023-03-15T06:22:25.831Z,50.62
2023-03-15T06:23:27.098Z,56.25
2023-03-15T06:24:27.582Z,56.25
2023-03-15T06:25:28.333Z,56.25
2023-03-15T06:26:29.085Z,56.25
2023-03-15T06:27:29.576Z,56.25
2023-03-15T06:28:30.339Z,56.25
2023-03-15T06:29:31.085Z,61.88
2023-03-15T06:30:31.661Z,61.88
2023-03-15T06:31:32.417Z,61.88
2023-03-15T06:32:33.178Z,61.88
2023-03-15T06:33:33.680Z,61.88
2023-03-15T06:34:34.429Z,67.50
2023-03-15T06:35:35.203Z,67.50
2023-03-15T06:36:35.665Z,73.12
2023-03-15T06:37:36.436Z,84.38
2023-03-15T06:38:37.195Z,90.00
2023-03-15T06:39:37.697Z,90.00
2023-03-15T06:40:38.441Z,84.38
2023-03-15T06:41:39.195Z,78.75
2023-03-15T06:42:39.691Z,84.38
2023-03-15T06:43:40.454Z,90.00
2023-03-15T06:44:41.306Z,90.00
2023-03-15T06:45:42.300Z,95.62
2023-03-15T06:46:43.038Z,95.62
2023-03-15T06:47:44.291Z,95.62
2023-03-15T06:48:44.792Z,95.62
2023-03-15T06:49:45.561Z,90.00
2023-03-15T06:50:47.775Z,84.38
2023-03-15T06:51:46.839Z,90.00
2023-03-15T06:52:47.574Z,90.00
2023-03-15T06:53:48.871Z,84.38
2023-03-15T06:54:49.367Z,78.75
2023-03-15T06:55:50.125Z,73.12
2023-03-15T06:56:50.894Z,73.12
2023-03-15T06:57:51.377Z,73.12
2023-03-15T06:58:52.143Z,73.12
2023-03-15T06:59:52.901Z,73.12
2023-03-15T07:00:53.378Z,84.38
2023-03-15T07:01:54.219Z,90.00
2023-03-15T07:02:55.035Z,90.00
2023-03-15T07:03:55.487Z,90.00
2023-03-15T07:04:56.263Z,90.00
2023-03-15T07:05:57.003Z,90.00
2023-03-15T07:06:57.486Z,73.12
2023-03-15T07:07:58.238Z,78.75
2023-03-15T07:08:59.489Z,95.62
2023-03-15T07:09:59.986Z,95.62
2023-03-15T07:11:00.726Z,95.62
2023-03-15T07:12:02.008Z,95.62
2023-03-15T07:13:02.479Z,101.25
2023-03-15T07:14:03.237Z,101.25
2023-03-15T07:15:04.005Z,101.25
2023-03-15T07:16:04.533Z,101.25
2023-03-15T07:17:05.254Z,106.88
2023-03-15T07:18:06.500Z,106.88
2023-03-15T07:19:07.012Z,106.88
2023-03-15T07:20:07.754Z,106.88
2023-03-15T07:21:08.500Z,106.88
2023-03-15T07:22:09.493Z,106.88
2023-03-15T07:23:10.239Z,112.50
2023-03-15T07:24:11.514Z,112.50
2023-03-15T07:25:12.000Z,112.50
2023-03-15T07:26:12.761Z,112.50
2023-03-15T07:27:15.388Z,112.50
2023-03-15T07:28:14.066Z,112.50
2023-03-15T07:29:14.828Z,118.12
2023-03-15T07:30:15.323Z,118.12
2023-03-15T07:31:16.077Z,118.12
2023-03-15T07:32:16.893Z,118.12
2023-03-15T07:33:17.406Z,118.12
2023-03-15T07:34:18.166Z,118.12
2023-03-15T07:35:18.913Z,118.12
2023-03-15T07:36:19.408Z,118.12
2023-03-15T07:37:20.162Z,123.75
2023-03-15T07:38:20.916Z,123.75
2023-03-15T07:39:21.429Z,123.75
2023-03-15T07:40:22.177Z,123.75
2023-03-15T07:41:22.927Z,123.75
2023-03-15T07:42:23.915Z,123.75
2023-03-15T07:43:24.666Z,129.38
2023-03-15T07:44:25.450Z,101.25
2023-03-15T07:45:25.921Z,129.38
2023-03-15T07:46:26.713Z,129.38
2023-03-15T07:47:27.451Z,129.38
2023-03-15T07:48:27.946Z,129.38
2023-03-15T07:49:28.717Z,129.38
2023-03-15T07:50:29.588Z,135.00
2023-03-15T07:51:30.062Z,135.00
2023-03-15T07:52:30.820Z,140.62
2023-03-15T07:53:31.556Z,135.00
2023-03-15T07:54:32.592Z,151.88
2023-03-15T07:55:33.330Z,135.00
2023-03-15T07:56:34.589Z,140.62
2023-03-15T07:57:35.074Z,129.38
2023-03-15T07:58:35.843Z,135.00
2023-03-15T07:59:36.601Z,135.00
2023-03-15T08:00:37.116Z,157.50
2023-03-15T08:01:37.870Z,135.00
2023-03-15T08:02:38.693Z,174.38
2023-03-15T08:03:39.655Z,180.00
2023-03-15T08:04:40.425Z,174.38
2023-03-15T08:05:41.184Z,168.75
2023-03-15T08:06:41.671Z,196.88
2023-03-15T08:07:42.422Z,157.50
2023-03-15T08:08:43.665Z,157.50
2023-03-15T08:09:44.163Z,168.75
2023-03-15T08:10:44.915Z,135.00
2023-03-15T08:11:45.828Z,151.88
2023-03-15T08:12:46.300Z,185.62
2023-03-15T08:13:47.042Z,146.25
2023-03-15T08:14:48.303Z,163.12
2023-03-15T08:15:48.882Z,180.00
2023-03-15T08:16:49.642Z,151.88
2023-03-15T08:17:50.413Z,185.62
2023-03-15T08:18:50.930Z,208.12
2023-03-15T08:19:51.702Z,180.00
2023-03-15T08:20:52.456Z,185.62
2023-03-15T08:21:52.986Z,225.00
2023-03-15T08:22:53.720Z,281.25
2023-03-15T08:23:54.466Z,275.62
2023-03-15T08:24:54.976Z,213.75
2023-03-15T08:25:55.715Z,208.12
2023-03-15T08:26:57.016Z,151.88
2023-03-15T08:27:57.502Z,146.25
2023-03-15T08:28:58.246Z,157.50
2023-03-15T08:29:59.014Z,174.38
2023-03-15T08:30:59.507Z,163.12
2023-03-15T08:32:00.322Z,202.50
2023-03-15T08:33:01.098Z,213.75
2023-03-15T08:34:01.541Z,241.88
2023-03-15T08:35:02.301Z,241.88
2023-03-15T08:36:03.125Z,236.25
2023-03-15T08:37:03.585Z,236.25
2023-03-15T08:38:04.338Z,225.00
2023-03-15T08:39:05.081Z,270.00
2023-03-15T08:40:06.093Z,309.38
2023-03-15T08:41:06.837Z,281.25
2023-03-15T08:42:08.088Z,230.62
2023-03-15T08:43:09.325Z,219.38
2023-03-15T08:44:10.324Z,264.38
2023-03-15T08:45:11.084Z,219.38
2023-03-15T08:46:11.931Z,253.12
2023-03-15T08:47:12.412Z,264.38
2023-03-15T08:48:13.125Z,258.75
2023-03-15T08:49:14.365Z,292.50
2023-03-15T08:50:15.641Z,326.25
2023-03-15T08:51:16.122Z,326.25
2023-03-15T08:52:18.211Z,281.25
2023-03-15T08:53:18.010Z,253.12
2023-03-15T08:54:18.505Z,275.62
2023-03-15T08:55:19.305Z,286.88
2023-03-15T08:56:20.063Z,270.00
2023-03-15T08:57:20.543Z,202.50
2023-03-15T08:58:21.310Z,180.00
2023-03-15T08:59:31.371Z,241.88
2023-03-15T09:00:23.664Z,213.75
2023-03-15T09:01:23.404Z,247.50
2023-03-15T09:02:24.450Z,247.50
2023-03-15T09:03:25.172Z,225.00
2023-03-15T09:04:26.445Z,247.50
2023-03-15T09:05:26.949Z,247.50
2023-03-15T09:06:27.688Z,275.62
2023-03-15T09:07:28.431Z,236.25
2023-03-15T09:08:29.435Z,213.75
2023-03-15T09:09:30.191Z,225.00
2023-03-15T09:10:30.958Z,208.12
2023-03-15T09:11:31.433Z,191.25
2023-03-15T09:12:32.204Z,185.62
2023-03-15T09:13:32.937Z,185.62
2023-03-15T09:14:33.915Z,185.62
2023-03-15T09:15:34.683Z,185.62
2023-03-15T09:16:35.516Z,180.00
2023-03-15T09:17:35.952Z,180.00
2023-03-15T09:18:36.701Z,180.00
2023-03-15T09:19:37.467Z,180.00
2023-03-15T09:20:37.971Z,185.62
2023-03-15T09:21:38.723Z,185.62
2023-03-15T09:22:39.912Z,185.62
2023-03-15T09:23:40.426Z,185.62
2023-03-15T09:24:41.178Z,185.62
2023-03-15T09:25:41.954Z,191.25
2023-03-15T09:26:42.444Z,202.50
2023-03-15T09:27:43.188Z,225.00
2023-03-15T09:28:44.439Z,281.25
2023-03-15T09:29:44.926Z,298.12
2023-03-15T09:30:45.744Z,292.50
2023-03-15T09:31:46.449Z,292.50
2023-03-15T09:32:47.027Z,258.75
2023-03-15T09:33:47.803Z,219.38
2023-03-15T09:34:48.554Z,236.25
2023-03-15T09:35:49.099Z,241.88
2023-03-15T09:36:49.855Z,208.12
2023-03-15T09:37:50.577Z,202.50
2023-03-15T09:38:51.070Z,208.12
2023-03-15T09:39:51.822Z,208.12
2023-03-15T09:40:53.081Z,202.50
2023-03-15T09:41:53.576Z,196.88
2023-03-15T09:42:54.339Z,196.88
2023-03-15T09:43:55.080Z,196.88
2023-03-15T09:44:56.070Z,196.88
2023-03-15T09:45:56.891Z,196.88
2023-03-15T09:46:57.700Z,196.88
2023-03-15T09:47:58.183Z,208.12
2023-03-15T09:48:58.940Z,219.38
2023-03-15T09:49:59.694Z,264.38
2023-03-15T09:51:00.698Z,270.00
2023-03-15T09:52:01.449Z,315.00
2023-03-15T09:53:02.209Z,376.88
2023-03-15T09:54:02.699Z,371.25
2023-03-15T09:55:03.456Z,343.12
2023-03-15T09:56:04.272Z,286.88
2023-03-15T09:57:04.754Z,303.75
2023-03-15T09:58:05.495Z,382.50
2023-03-15T09:59:06.245Z,410.62
2023-03-15T10:00:06.732Z,371.25
2023-03-15T10:01:07.514Z,382.50
2023-03-15T10:02:08.260Z,326.25
2023-03-15T10:03:09.248Z,331.88
2023-03-15T10:04:09.996Z,371.25
2023-03-15T10:05:10.919Z,388.12
2023-03-15T10:06:11.449Z,326.25
2023-03-15T10:07:12.162Z,326.25
2023-03-15T10:08:12.911Z,416.25
2023-03-15T10:09:13.920Z,399.38
2023-03-15T10:10:14.662Z,337.50
2023-03-15T10:11:15.916Z,365.62
2023-03-15T10:12:16.403Z,393.75
2023-03-15T10:13:17.161Z,421.88
2023-03-15T10:14:17.939Z,421.88
2023-03-15T10:15:18.420Z,320.62
2023-03-15T10:16:19.210Z,360.00
2023-03-15T10:17:19.954Z,427.50
2023-03-15T10:18:20.442Z,393.75
2023-03-15T10:19:21.219Z,421.88
2023-03-15T10:20:21.966Z,466.88
2023-03-15T10:21:22.960Z,438.75
2023-03-15T10:22:23.699Z,421.88
2023-03-15T10:23:24.949Z,545.62
2023-03-15T10:24:25.460Z,444.38
2023-03-15T10:25:26.234Z,444.38
2023-03-15T10:26:26.965Z,298.12
2023-03-15T10:27:27.470Z,337.50
2023-03-15T10:28:28.209Z,292.50
2023-03-15T10:29:28.975Z,399.38
2023-03-15T10:30:29.468Z,399.38
2023-03-15T10:31:41.303Z,416.25
2023-03-15T10:32:31.853Z,365.62
2023-03-15T10:33:32.090Z,337.50
2023-03-15T10:34:33.312Z,534.38
2023-03-15T10:35:34.388Z,427.50
2023-03-15T10:36:35.161Z,416.25
2023-03-15T10:37:35.895Z,489.38
2023-03-15T10:38:36.393Z,483.75
2023-03-15T10:39:37.168Z,393.75
2023-03-15T10:40:37.917Z,331.88
2023-03-15T10:41:38.910Z,337.50
2023-03-15T10:42:40.201Z,388.12
2023-03-15T10:43:40.439Z,371.25
2023-03-15T10:44:40.956Z,337.50
2023-03-15T10:45:41.694Z,354.38
2023-03-15T10:46:42.528Z,337.50
2023-03-15T10:47:50.404Z,320.62
2023-03-15T10:48:44.577Z,348.75
2023-03-15T10:49:44.843Z,410.62
2023-03-15T10:50:45.314Z,455.62
2023-03-15T10:51:46.076Z,343.12
2023-03-15T10:52:46.796Z,399.38
2023-03-15T10:53:47.770Z,438.75
2023-03-15T10:54:52.583Z,298.12
2023-03-15T10:55:50.183Z,309.38
2023-03-15T10:56:50.424Z,281.25
2023-03-15T10:57:51.663Z,298.12
2023-03-15T10:59:05.944Z,326.25
2023-03-15T10:59:54.283Z,337.50
2023-03-15T11:00:54.017Z,624.38
2023-03-15T11:01:55.065Z,1462.50
2023-03-15T11:02:55.855Z,416.25
2023-03-15T11:03:57.046Z,1985.62
2023-03-15T11:04:57.546Z,2086.88
2023-03-15T11:05:58.306Z,2109.38
2023-03-15T11:06:59.066Z,2171.25
2023-03-15T11:07:59.567Z,1192.50
2023-03-15T11:09:00.304Z,2171.25
2023-03-15T11:10:01.095Z,2160.00
2023-03-15T11:11:01.563Z,2233.12
2023-03-15T11:12:02.332Z,2261.25
2023-03-15T11:13:03.066Z,1057.50
2023-03-15T11:14:03.571Z,2019.38
2023-03-15T11:15:04.345Z,2109.38
2023-03-15T11:16:05.136Z,2266.88
2023-03-15T11:17:05.636Z,2345.62
2023-03-15T11:18:08.004Z,2323.12
2023-03-15T11:19:07.284Z,2244.38
2023-03-15T11:20:08.051Z,2244.38
2023-03-15T11:21:08.522Z,1535.62
2023-03-15T11:22:09.261Z,568.12
2023-03-15T11:23:10.490Z,2205.00
2023-03-15T11:24:11.755Z,2255.62
2023-03-15T11:25:12.260Z,2160.00
2023-03-15T11:26:19.054Z,2041.88
2023-03-15T11:27:14.619Z,2075.62
2023-03-15T11:28:14.865Z,2165.62
2023-03-15T11:29:16.100Z,2160.00
2023-03-15T11:30:17.144Z,2171.25
2023-03-15T11:31:17.846Z,2137.50
2023-03-15T11:32:19.068Z,2070.00
2023-03-15T11:33:19.567Z,2092.50
2023-03-15T11:34:20.318Z,2176.88
2023-03-15T11:35:21.091Z,2311.88
2023-03-15T11:36:21.580Z,2261.25
2023-03-15T11:37:22.327Z,2171.25
2023-03-15T11:38:23.078Z,2255.62
2023-03-15T11:39:23.574Z,2306.25
2023-03-15T11:40:24.336Z,2272.50
2023-03-15T11:41:25.077Z,2373.75
2023-03-15T11:42:26.080Z,2418.75
2023-03-15T11:43:26.832Z,472.50
2023-03-15T11:44:28.084Z,1783.12
2023-03-15T11:45:28.667Z,1845.00
2023-03-15T11:46:29.393Z,2081.25
2023-03-15T11:47:30.203Z,1923.75
2023-03-15T11:48:30.705Z,1653.75
2023-03-15T11:49:31.459Z,1777.50
2023-03-15T11:50:32.236Z,1901.25
2023-03-15T11:51:32.709Z,1929.38
2023-03-15T11:52:33.465Z,1968.75
2023-03-15T11:53:34.245Z,2025.00
2023-03-15T11:54:34.714Z,2064.38
2023-03-15T11:55:35.510Z,1698.75
2023-03-15T11:56:36.245Z,399.38
2023-03-15T11:57:37.246Z,1710.00
2023-03-15T11:58:37.993Z,894.38
2023-03-15T11:59:38.797Z,556.88
2023-03-15T12:00:39.373Z,2266.88
2023-03-15T12:01:40.099Z,371.25
2023-03-15T12:02:40.894Z,427.50
2023-03-15T12:03:41.388Z,618.75
2023-03-15T12:04:42.230Z,911.25
2023-03-15T12:05:42.963Z,2424.38
2023-03-15T12:06:43.446Z,1186.88
2023-03-15T12:07:44.183Z,556.88
2023-03-15T12:08:44.975Z,382.50
2023-03-15T12:09:45.432Z,382.50
2023-03-15T12:10:46.197Z,433.12
2023-03-15T12:11:46.947Z,663.75
2023-03-15T12:12:47.464Z,438.75
2023-03-15T12:13:48.191Z,438.75
2023-03-15T12:14:49.456Z,427.50
2023-03-15T12:15:49.977Z,393.75
2023-03-15T12:16:50.763Z,320.62
2023-03-15T12:17:51.482Z,281.25
2023-03-15T12:18:51.977Z,303.75
2023-03-15T12:19:52.725Z,360.00
2023-03-15T12:20:53.511Z,483.75
2023-03-15T12:21:53.994Z,624.38
2023-03-15T12:22:56.788Z,556.88
2023-03-15T12:23:55.325Z,585.00
2023-03-15T12:24:56.562Z,1130.62
2023-03-15T12:25:57.064Z,2244.38
2023-03-15T12:26:57.792Z,489.38
2023-03-15T12:27:59.026Z,506.25
2023-03-15T12:28:59.526Z,618.75
2023-03-15T12:30:00.296Z,2542.50
2023-03-15T12:31:01.623Z,2508.75
2023-03-15T12:32:02.131Z,2244.38
2023-03-15T12:33:02.935Z,669.38
2023-03-15T12:34:03.672Z,2283.75
2023-03-15T12:35:04.665Z,630.00
2023-03-15T12:36:05.472Z,669.38
2023-03-15T12:37:06.199Z,596.25
2023-03-15T12:38:06.685Z,573.75
2023-03-15T12:39:07.437Z,540.00
2023-03-15T12:40:08.245Z,506.25
2023-03-15T12:41:08.755Z,489.38
2023-03-15T12:42:09.512Z,506.25
2023-03-15T12:43:10.251Z,511.88
2023-03-15T12:44:10.749Z,500.62
2023-03-15T12:45:11.499Z,517.50
2023-03-15T12:46:12.661Z,551.25
2023-03-15T12:47:13.159Z,1732.50
2023-03-15T12:48:13.966Z,1636.88
2023-03-15T12:49:14.715Z,714.38
2023-03-15T12:50:15.160Z,826.88
2023-03-15T12:51:15.935Z,579.38
2023-03-15T12:52:16.697Z,601.88
2023-03-15T12:53:17.182Z,450.00
2023-03-15T12:54:17.931Z,506.25
2023-03-15T12:55:18.711Z,523.12
2023-03-15T12:56:19.201Z,528.75
2023-03-15T12:57:19.948Z,495.00
2023-03-15T12:58:20.704Z,461.25
2023-03-15T12:59:21.683Z,455.62
2023-03-15T13:00:22.450Z,433.12